Time;durP1;ratioP1;P1;durP2;ratioP2;P2;SDS_P1;SDS_P2;PMS_P1;PMS_P2;Temp;Humidity;BMP_temperature;BMP_pressure;BME280_temperature;BME280_humidity;BME280_pressure;Samples;Min_cycle;Max_cycle;Signal;HPM_P1;HPM_P2
2023/01/16 00:00:03;;;;;;;355.65;116.45;;;;;;;6.05;100.00;99705.41;346279;28;985;-77
2023/01/16 00:00:14;;;;;;;352.13;111.13;;;;;;;6.04;100.00;99695.06;343540;28;867;-77
2023/01/16 00:00:25;;;;;;;353.20;112.63;;;;;;;6.03;100.00;99702.00;346728;28;884;-77
2023/01/16 00:00:35;;;;;;;354.50;116.07;;;;;;;6.04;100.00;99705.44;344674;28;1217;-77
2023/01/16 00:00:47;;;;;;;360.15;117.13;;;;;;;6.04;100.00;99703.69;342511;28;1571;-76
2023/01/16 00:00:57;;;;;;;361.58;118.40;;;;;;;6.06;100.00;99701.94;343537;28;1272;-76
2023/01/16 00:01:08;;;;;;;362.52;119.40;;;;;;;6.06;100.00;99704.53;345229;28;1484;-76
2023/01/16 00:01:18;;;;;;;358.48;121.07;;;;;;;6.07;100.00;99700.16;344697;28;1802;-77
2023/01/16 00:01:29;;;;;;;359.83;123.13;;;;;;;6.05;100.00;99700.22;344842;28;1589;-76
2023/01/16 00:01:39;;;;;;;362.55;122.43;;;;;;;6.05;100.00;99709.75;345047;28;939;-76
2023/01/16 00:01:50;;;;;;;361.33;120.20;;;;;;;6.04;100.00;99703.69;343799;28;1180;-76
2023/01/16 00:02:01;;;;;;;357.65;115.93;;;;;;;6.05;100.00;99699.38;342166;28;1288;-76
2023/01/16 00:02:11;;;;;;;362.40;121.73;;;;;;;6.06;100.00;99703.66;344816;28;1375;-76
2023/01/16 00:02:22;;;;;;;362.85;122.53;;;;;;;6.06;100.00;99701.94;344196;28;1408;-76
2023/01/16 00:02:32;;;;;;;366.10;123.97;;;;;;;6.06;100.00;99709.72;343307;28;975;-76
2023/01/16 00:02:43;;;;;;;365.48;120.72;;;;;;;6.06;100.00;99707.13;344644;28;1167;-76
2023/01/16 00:02:53;;;;;;;369.30;123.90;;;;;;;6.06;100.00;99704.53;342897;28;1234;-76
2023/01/16 00:03:04;;;;;;;367.77;125.47;;;;;;;6.08;100.00;99701.88;342079;28;1366;-76
2023/01/16 00:03:14;;;;;;;364.57;129.70;;;;;;;6.06;100.00;99701.94;340676;28;1178;-76
2023/01/16 00:03:24;;;;;;;364.45;128.93;;;;;;;6.00;100.00;99702.06;341201;28;1327;-76
2023/01/16 00:03:35;;;;;;;368.93;130.27;;;;;;;5.97;100.00;99708.16;338354;29;870;-76
2023/01/16 00:03:45;;;;;;;367.45;126.65;;;;;;;5.93;100.00;99695.28;340388;28;1313;-76
2023/01/16 00:03:56;;;;;;;366.70;129.63;;;;;;;5.93;100.00;99698.72;338997;29;1344;-76
2023/01/16 00:04:06;;;;;;;363.25;128.07;;;;;;;5.93;100.00;99697.88;340880;28;1221;-76
2023/01/16 00:04:16;;;;;;;366.33;133.37;;;;;;;5.94;100.00;99702.19;338019;29;1606;-76
2023/01/16 00:04:27;;;;;;;371.43;133.83;;;;;;;5.94;100.00;99707.38;338583;29;1911;-77
2023/01/16 00:04:37;;;;;;;371.73;137.10;;;;;;;5.95;100.00;99709.09;339607;29;1242;-77
2023/01/16 00:04:48;;;;;;;366.58;135.05;;;;;;;5.96;100.00;99708.19;342102;28;1448;-75
2023/01/16 00:04:58;;;;;;;362.10;134.07;;;;;;;5.95;100.00;99698.69;342014;28;989;-77
2023/01/16 00:05:09;;;;;;;362.38;132.98;;;;;;;5.95;100.00;99703.88;339674;29;1403;-76
2023/01/16 00:05:20;;;;;;;364.33;132.57;;;;;;;5.92;100.00;99703.94;340749;29;1410;-76
2023/01/16 00:05:31;;;;;;;365.73;133.40;;;;;;;5.92;100.00;99702.22;341595;28;1388;-75
2023/01/16 00:05:42;;;;;;;365.07;132.50;;;;;;;5.94;100.00;99702.19;339541;28;1794;-75
2023/01/16 00:05:52;;;;;;;369.50;132.94;;;;;;;5.95;100.00;99701.28;336835;29;2032;-75
2023/01/16 00:06:03;;;;;;;370.07;130.57;;;;;;;5.96;100.00;99700.41;337176;29;1126;-75
2023/01/16 00:06:13;;;;;;;368.63;132.45;;;;;;;5.95;100.00;99701.28;336280;29;1982;-75
2023/01/16 00:06:24;;;;;;;365.97;132.43;;;;;;;5.96;100.00;99703.00;329557;29;2126;-75
2023/01/16 00:06:35;;;;;;;366.57;134.57;;;;;;;5.93;100.00;99695.28;322800;30;1405;-75
2023/01/16 00:06:46;;;;;;;367.13;133.88;;;;;;;5.95;100.00;99694.34;329007;29;1743;-76
2023/01/16 00:06:56;;;;;;;365.48;134.48;;;;;;;5.93;100.00;99696.13;331063;29;1381;-76
2023/01/16 00:07:07;;;;;;;367.40;132.77;;;;;;;5.94;100.00;99707.38;332873;29;900;-76
2023/01/16 00:07:17;;;;;;;371.20;133.15;;;;;;;5.93;100.00;99697.88;330082;29;2470;-76
2023/01/16 00:07:27;;;;;;;374.33;134.03;;;;;;;5.92;100.00;99694.41;328471;30;1937;-76
2023/01/16 00:07:38;;;;;;;373.17;136.18;;;;;;;5.94;100.00;99699.59;325492;30;2120;-76
2023/01/16 00:07:48;;;;;;;371.17;135.57;;;;;;;5.94;100.00;99692.66;327054;30;919;-76
2023/01/16 00:07:58;;;;;;;366.60;131.70;;;;;;;5.95;100.00;99696.97;330274;29;2521;-76
2023/01/16 00:08:09;;;;;;;365.97;129.30;;;;;;;5.96;100.00;99695.22;331368;29;2432;-76
2023/01/16 00:08:19;;;;;;;364.50;130.05;;;;;;;5.97;100.00;99704.72;325646;30;1470;-76
2023/01/16 00:08:30;;;;;;;364.17;131.83;;;;;;;5.97;100.00;99697.78;321740;30;2578;-76
2023/01/16 00:08:41;;;;;;;367.10;132.40;;;;;;;5.97;100.00;99696.91;321122;30;3149;-76
2023/01/16 00:08:52;;;;;;;369.10;133.35;;;;;;;5.97;100.00;99694.31;321152;30;1821;-76
2023/01/16 00:09:03;;;;;;;369.35;131.63;;;;;;;5.97;100.00;99700.38;325897;30;816;-76
2023/01/16 00:09:14;;;;;;;364.17;130.00;;;;;;;5.97;100.00;99696.91;324518;30;1283;-76
2023/01/16 00:09:24;;;;;;;362.08;128.32;;;;;;;5.97;100.00;99692.59;321546;30;1962;-77
2023/01/16 00:09:35;;;;;;;359.93;128.37;;;;;;;5.97;100.00;99695.19;322108;30;1429;-76
2023/01/16 00:09:45;;;;;;;360.52;129.60;;;;;;;5.97;100.00;99691.72;324839;30;2658;-76
2023/01/16 00:09:55;;;;;;;363.60;132.77;;;;;;;5.98;100.00;99693.44;323848;30;2768;-76
2023/01/16 00:10:06;;;;;;;366.38;133.40;;;;;;;5.99;100.00;99695.16;327078;30;915;-76
2023/01/16 00:10:17;;;;;;;369.15;135.77;;;;;;;5.96;100.00;99690.00;325731;30;931;-76
2023/01/16 00:10:28;;;;;;;369.98;135.18;;;;;;;5.96;100.00;99692.63;322886;30;3343;-76
2023/01/16 00:10:38;;;;;;;373.00;135.50;;;;;;;5.94;100.00;99692.66;317330;30;3375;-76
2023/01/16 00:10:48;;;;;;;372.83;135.47;;;;;;;5.95;100.00;99693.50;318745;31;858;-76
2023/01/16 00:10:59;;;;;;;368.73;133.00;;;;;;;5.94;100.00;99692.66;318883;30;3239;-76
2023/01/16 00:11:10;;;;;;;368.03;132.27;;;;;;;5.95;100.00;99696.97;317662;31;2304;-76
2023/01/16 00:11:21;;;;;;;368.02;133.70;;;;;;;5.97;100.00;99692.59;314321;31;1848;-76
2023/01/16 00:11:31;;;;;;;368.80;136.25;;;;;;;5.98;100.00;99686.50;315693;31;2281;-76
2023/01/16 00:11:42;;;;;;;366.73;135.63;;;;;;;6.00;100.00;99694.25;316809;31;2843;-76
2023/01/16 00:11:52;;;;;;;368.58;134.30;;;;;;;6.00;100.00;99697.72;316357;31;3435;-76
2023/01/16 00:12:03;;;;;;;370.27;131.63;;;;;;;6.01;100.00;99695.97;317281;31;1441;-76
2023/01/16 00:12:13;;;;;;;372.15;133.60;;;;;;;6.02;100.00;99689.88;314315;31;4237;-76
2023/01/16 00:12:24;;;;;;;368.57;133.37;;;;;;;6.02;100.00;99689.88;312029;31;4947;-76
2023/01/16 00:12:34;;;;;;;369.25;136.02;;;;;;;6.03;100.00;99694.19;308419;32;1382;-76
2023/01/16 00:12:47;;;;;;;369.92;136.48;;;;;;;6.03;100.00;99691.59;308349;31;4731;-76
2023/01/16 00:12:58;;;;;;;371.13;140.75;;;;;;;6.03;100.00;99690.75;304422;32;4518;-76
2023/01/16 00:13:10;;;;;;;370.10;139.73;;;;;;;6.01;100.00;99698.56;303228;32;4401;-76
2023/01/16 00:13:20;;;;;;;371.50;140.00;;;;;;;6.01;100.00;99688.19;305161;32;1614;-76
2023/01/16 00:13:30;;;;;;;366.85;137.02;;;;;;;6.02;100.00;99689.03;301695;32;3312;-76
2023/01/16 00:13:41;;;;;;;365.17;135.97;;;;;;;6.03;100.00;99693.34;298346;32;3050;-76
2023/01/16 00:13:52;;;;;;;365.10;133.30;;;;;;;6.04;100.00;99693.31;298051;33;1209;-76
2023/01/16 00:14:03;;;;;;;371.17;134.13;;;;;;;6.02;100.00;99689.88;296543;33;980;-76
2023/01/16 00:14:13;;;;;;;370.60;133.40;;;;;;;6.03;100.00;99694.19;295231;33;5138;-75
2023/01/16 00:14:24;;;;;;;369.93;138.07;;;;;;;6.02;100.00;99692.50;292787;33;6652;-76
2023/01/16 00:14:34;;;;;;;365.45;136.98;;;;;;;6.03;100.00;99690.75;293428;33;886;-76
2023/01/16 00:14:44;;;;;;;367.67;139.40;;;;;;;6.01;100.00;99693.38;291513;33;7614;-76
2023/01/16 00:14:56;;;;;;;372.43;137.57;;;;;;;5.99;100.00;99685.63;290356;33;6381;-76
2023/01/16 00:15:07;;;;;;;375.98;138.40;;;;;;;6.01;100.00;99688.19;292144;33;1339;-76
2023/01/16 00:15:17;;;;;;;374.77;138.07;;;;;;;6.00;100.00;99686.47;285775;34;1318;-76
2023/01/16 00:15:27;;;;;;;370.47;137.70;;;;;;;6.01;100.00;99688.19;286007;34;3813;-77
2023/01/16 00:15:38;;;;;;;368.85;138.63;;;;;;;6.02;100.00;99689.88;285404;34;4643;-76
2023/01/16 00:15:49;;;;;;;368.30;137.30;;;;;;;6.01;100.00;99688.19;284663;34;1488;-76
2023/01/16 00:16:00;;;;;;;366.88;134.07;;;;;;;6.00;100.00;99689.94;282743;34;4219;-76
2023/01/16 00:16:10;;;;;;;366.23;132.27;;;;;;;6.00;100.00;99686.47;281311;34;5887;-76
2023/01/16 00:16:21;;;;;;;365.45;132.63;;;;;;;6.01;100.00;99682.97;281045;35;913;-76
2023/01/16 00:16:31;;;;;;;364.90;132.77;;;;;;;6.00;100.00;99686.47;275475;35;8565;-75
2023/01/16 00:16:42;;;;;;;367.08;133.02;;;;;;;6.01;100.00;99693.38;275079;35;9486;-76
2023/01/16 00:16:52;;;;;;;368.07;134.43;;;;;;;6.02;100.00;99683.84;273113;35;11356;-76
2023/01/16 00:17:02;;;;;;;369.37;133.60;;;;;;;6.02;100.00;99689.88;273047;36;1293;-76
2023/01/16 00:17:13;;;;;;;368.70;136.63;;;;;;;6.01;100.00;99695.97;268720;36;9664;-76
2023/01/16 00:17:24;;;;;;;366.60;134.02;;;;;;;5.99;100.00;99684.75;268111;36;7714;-75
2023/01/16 00:17:34;;;;;;;369.38;136.57;;;;;;;6.01;100.00;99688.19;270685;36;889;-76
2023/01/16 00:19:27;;;;;;;361.27;127.26;;;;;;;;;;2446566;27;20961;-76
2023/01/16 00:19:37;;;;;;;373.67;132.63;;;;;;;;;;346168;28;1197;-76
2023/01/16 00:19:47;;;;;;;368.77;131.03;;;;;;;;;;344147;28;1364;-76
2023/01/16 00:19:57;;;;;;;370.52;130.60;;;;;;;;;;342089;28;1229;-76
2023/01/16 00:20:08;;;;;;;369.20;130.50;;;;;;;;;;342126;28;1419;-76
2023/01/16 00:20:18;;;;;;;369.83;132.90;;;;;;;;;;342020;28;1203;-76
2023/01/16 00:20:28;;;;;;;367.00;133.37;;;;;;;;;;340726;29;1447;-76
2023/01/16 00:20:39;;;;;;;363.77;133.20;;;;;;;;;;341012;29;817;-76
2023/01/16 00:20:49;;;;;;;364.10;133.17;;;;;;;;;;339576;29;872;-76
2023/01/16 00:20:59;;;;;;;365.75;132.13;;;;;;;;;;340842;29;1509;-77
2023/01/16 00:21:09;;;;;;;367.00;134.00;;;;;;;;;;345706;28;1185;-76
2023/01/16 00:21:20;;;;;;;368.53;134.93;;;;;;;;;;347410;28;921;-76
2023/01/16 00:21:30;;;;;;;367.33;135.55;;;;;;;;;;348966;28;855;-76
2023/01/16 00:21:40;;;;;;;364.83;133.27;;;;;;;;;;347682;28;1360;-76
2023/01/16 00:21:50;;;;;;;362.53;130.90;;;;;;;;;;346032;28;1440;-76
2023/01/16 00:22:00;;;;;;;362.77;129.85;;;;;;;;;;348050;28;821;-76
2023/01/16 00:22:11;;;;;;;367.23;128.37;;;;;;;;;;347561;28;1208;-76
2023/01/16 00:22:21;;;;;;;370.37;128.40;;;;;;;;;;346548;28;785;-76
2023/01/16 00:22:31;;;;;;;371.70;129.27;;;;;;;;;;346502;28;1073;-76
2023/01/16 00:22:41;;;;;;;370.30;130.73;;;;;;;;;;344963;28;829;-76
2023/01/16 00:22:51;;;;;;;367.63;129.93;;;;;;;;;;343416;28;1417;-76
2023/01/16 00:23:02;;;;;;;365.57;126.03;;;;;;;;;;344910;28;1192;-76
2023/01/16 00:23:12;;;;;;;360.97;120.93;;;;;;;;;;346230;28;1186;-76
2023/01/16 00:23:23;;;;;;;358.07;118.10;;;;;;;;;;346960;28;1096;-75
2023/01/16 00:23:33;;;;;;;356.10;116.88;;;;;;;;;;344697;28;1285;-76
2023/01/16 00:23:43;;;;;;;358.37;118.97;;;;;;;;;;342072;28;1319;-76
2023/01/16 00:23:54;;;;;;;358.80;117.83;;;;;;;;;;343910;28;1396;-76
2023/01/16 00:24:06;;;;;;;361.33;119.65;;;;;;;;;;343435;28;1102;-76
2023/01/16 00:24:16;;;;;;;366.58;117.18;;;;;;;;;;343540;28;2066;-76
2023/01/16 00:24:26;;;;;;;367.43;117.20;;;;;;;;;;344778;28;1415;-76
2023/01/16 00:24:36;;;;;;;365.67;120.05;;;;;;;;;;343804;28;1236;-76
2023/01/16 00:24:47;;;;;;;363.17;122.80;;;;;;;;;;346064;28;1161;-76
2023/01/16 00:24:57;;;;;;;361.63;122.83;;;;;;;;;;342036;28;1295;-77
2023/01/16 00:25:07;;;;;;;359.93;120.67;;;;;;;;;;340190;29;1431;-76
2023/01/16 00:25:18;;;;;;;359.40;119.82;;;;;;;;;;339513;28;1238;-76
2023/01/16 00:25:28;;;;;;;357.27;118.50;;;;;;;;;;344896;28;874;-76
2023/01/16 00:25:38;;;;;;;361.35;122.78;;;;;;;;;;344319;28;1192;-76
2023/01/16 00:25:49;;;;;;;364.17;126.77;;;;;;;;;;343616;28;1350;-76
2023/01/16 00:25:59;;;;;;;370.33;130.10;;;;;;;;;;346072;28;805;-76
2023/01/16 00:26:09;;;;;;;367.73;128.83;;;;;;;;;;343559;28;1217;-76
2023/01/16 00:26:19;;;;;;;364.30;129.93;;;;;;;;;;342275;28;1013;-76
2023/01/16 00:26:30;;;;;;;359.30;125.23;;;;;;;;;;343314;28;1114;-76
2023/01/16 00:26:40;;;;;;;358.60;122.90;;;;;;;;;;342065;28;1554;-76
2023/01/16 00:26:51;;;;;;;362.87;120.70;;;;;;;;;;340084;29;901;-76
2023/01/16 00:27:01;;;;;;;362.15;120.25;;;;;;;;;;339476;28;1728;-76
2023/01/16 00:27:11;;;;;;;364.83;120.37;;;;;;;;;;342088;28;1214;-77
2023/01/16 00:27:21;;;;;;;367.40;124.40;;;;;;;;;;341923;28;1008;-77
2023/01/16 00:27:32;;;;;;;367.47;126.83;;;;;;;;;;339027;29;1698;-77
2023/01/16 00:27:42;;;;;;;366.40;124.77;;;;;;;;;;335837;29;1393;-77
2023/01/16 00:27:52;;;;;;;363.45;122.68;;;;;;;;;;339868;29;1368;-77
2023/01/16 00:28:03;;;;;;;361.67;119.50;;;;;;;;;;336776;29;1540;-77
2023/01/16 00:28:13;;;;;;;361.90;119.72;;;;;;;;;;336858;29;1455;-77
2023/01/16 00:28:23;;;;;;;361.53;119.27;;;;;;;;;;337817;29;3400;-77
2023/01/16 00:28:34;;;;;;;366.67;121.13;;;;;;;;;;337588;29;960;-77
2023/01/16 00:28:44;;;;;;;363.38;120.20;;;;;;;;;;340913;29;1318;-77
2023/01/16 00:28:54;;;;;;;359.50;118.27;;;;;;;;;;339494;29;1455;-76
2023/01/16 00:29:04;;;;;;;356.30;119.77;;;;;;;;;;339757;29;1189;-77
2023/01/16 00:29:14;;;;;;;354.90;119.33;;;;;;;;;;340672;29;1210;-77
2023/01/16 00:29:25;;;;;;;358.20;120.15;;;;;;;;;;339419;29;1613;-77
2023/01/16 00:29:35;;;;;;;362.80;125.27;;;;;;;;;;341319;28;1836;-77
2023/01/16 00:29:45;;;;;;;365.97;128.47;;;;;;;;;;342235;28;1287;-77
2023/01/16 00:29:55;;;;;;;367.05;131.52;;;;;;;;;;338475;28;2204;-77
2023/01/16 00:30:06;;;;;;;365.20;129.83;;;;;;;;;;334034;29;2148;-77
2023/01/16 00:30:16;;;;;;;361.03;126.53;;;;;;;;;;335541;29;1451;-77
2023/01/16 00:30:26;;;;;;;358.33;119.80;;;;;;;;;;338964;29;2236;-77
2023/01/16 00:30:37;;;;;;;359.03;117.43;;;;;;;;;;336827;29;1722;-77
2023/01/16 00:30:47;;;;;;;362.10;122.27;;;;;;;;;;334312;29;1235;-77
2023/01/16 00:30:57;;;;;;;362.67;126.43;;;;;;;;;;333085;29;1429;-77
2023/01/16 00:31:07;;;;;;;362.03;127.10;;;;;;;;;;332875;29;1419;-77
2023/01/16 00:31:18;;;;;;;363.07;126.37;;;;;;;;;;330868;29;2160;-77
2023/01/16 00:31:28;;;;;;;363.05;128.10;;;;;;;;;;328717;30;1376;-77
2023/01/16 00:31:38;;;;;;;367.93;131.77;;;;;;;;;;334351;29;2213;-77
2023/01/16 00:31:48;;;;;;;366.37;130.40;;;;;;;;;;335357;29;2570;-77
2023/01/16 00:31:58;;;;;;;365.03;129.93;;;;;;;;;;331924;29;836;-77
2023/01/16 00:32:10;;;;;;;362.35;129.35;;;;;;;;;;331176;29;2613;-77
2023/01/16 00:32:20;;;;;;;363.70;130.18;;;;;;;;;;329013;29;2518;-74
2023/01/16 00:32:30;;;;;;;367.87;130.30;;;;;;;;;;328087;30;832;-74
2023/01/16 00:32:40;;;;;;;367.47;128.27;;;;;;;;;;330216;29;2455;-76
2023/01/16 00:32:50;;;;;;;372.10;130.03;;;;;;;;;;327940;30;1796;-75
2023/01/16 00:33:01;;;;;;;372.57;131.23;;;;;;;;;;326806;30;1457;-75
2023/01/16 00:33:11;;;;;;;374.63;133.45;;;;;;;;;;326570;30;1381;-76
2023/01/16 00:33:21;;;;;;;372.57;132.67;;;;;;;;;;328088;30;2164;-76
2023/01/16 00:33:32;;;;;;;371.83;132.93;;;;;;;;;;328492;29;2369;-76
2023/01/16 00:33:42;;;;;;;365.75;129.50;;;;;;;;;;326949;30;1330;-76
2023/01/16 00:33:53;;;;;;;364.23;129.73;;;;;;;;;;325266;30;2901;-76
2023/01/16 00:34:03;;;;;;;365.67;131.52;;;;;;;;;;322918;30;3511;-76
2023/01/16 00:34:13;;;;;;;369.23;132.20;;;;;;;;;;323395;30;805;-76
2023/01/16 00:34:23;;;;;;;372.97;134.70;;;;;;;;;;319907;30;3500;-76
2023/01/16 00:34:33;;;;;;;369.97;133.17;;;;;;;;;;321299;30;3063;-76
2023/01/16 00:34:44;;;;;;;366.83;133.85;;;;;;;;;;319484;30;1371;-76
2023/01/16 00:34:54;;;;;;;366.87;135.23;;;;;;;;;;319731;30;2975;-76
2023/01/16 00:35:04;;;;;;;370.93;137.00;;;;;;;;;;318454;30;2546;-76
2023/01/16 00:35:14;;;;;;;370.85;136.10;;;;;;;;;;320041;30;813;-76
2023/01/16 00:35:26;;;;;;;365.93;132.00;;;;;;;;;;317848;30;2316;-76
2023/01/16 00:35:36;;;;;;;361.90;130.93;;;;;;;;;;315449;31;2593;-76
2023/01/16 00:35:47;;;;;;;364.70;130.93;;;;;;;;;;315504;31;3173;-76
2023/01/16 00:35:57;;;;;;;364.83;132.88;;;;;;;;;;316287;31;1327;-76
2023/01/16 00:36:08;;;;;;;366.73;133.43;;;;;;;;;;314967;31;4035;-76
2023/01/16 00:36:18;;;;;;;364.08;132.45;;;;;;;;;;312726;31;4821;-76
2023/01/16 00:36:29;;;;;;;365.67;132.07;;;;;;;;;;309559;31;1328;-76
2023/01/16 00:36:39;;;;;;;362.85;128.65;;;;;;;;;;308553;31;5594;-76
2023/01/16 00:36:49;;;;;;;369.20;128.83;;;;;;;;;;308715;31;4263;-76
2023/01/16 00:37:01;;;;;;;370.37;129.30;;;;;;;;;;310834;31;923;-76
2023/01/16 00:37:11;;;;;;;367.23;130.90;;;;;;;;;;308022;32;4184;-76
2023/01/16 00:37:21;;;;;;;363.03;127.37;;;;;;;;;;305449;32;4277;-76
2023/01/16 00:37:31;;;;;;;363.73;129.70;;;;;;;;;;305802;32;2446;-76
2023/01/16 00:37:41;;;;;;;366.00;132.15;;;;;;;;;;302133;32;1430;-76
2023/01/16 00:37:52;;;;;;;366.80;134.70;;;;;;;;;;300001;32;3742;-76
2023/01/16 00:38:02;;;;;;;367.50;133.30;;;;;;;;;;294760;33;4459;-76
2023/01/16 00:38:12;;;;;;;363.95;130.20;;;;;;;;;;294097;33;1220;-76
2023/01/16 00:38:22;;;;;;;363.67;131.83;;;;;;;;;;293592;33;5623;-76
2023/01/16 00:38:33;;;;;;;363.67;129.93;;;;;;;;;;293806;33;6495;-76
2023/01/16 00:38:43;;;;;;;367.20;131.90;;;;;;;;;;295049;33;1549;-76
2023/01/16 00:38:55;;;;;;;365.93;128.40;;;;;;;;;;292101;33;7106;-76
2023/01/16 00:39:05;;;;;;;367.83;130.15;;;;;;;;;;291782;33;6771;-76
2023/01/16 00:39:15;;;;;;;371.07;129.83;;;;;;;;;;292109;33;815;-76
2023/01/16 00:39:25;;;;;;;370.60;129.63;;;;;;;;;;291811;33;6135;-76
2023/01/16 00:39:38;;;;;;;369.43;130.13;;;;;;;;;;289743;33;5459;-76
2023/01/16 00:39:48;;;;;;;369.50;131.73;;;;;;;;;;286379;34;4930;-76
2023/01/16 00:39:58;;;;;;;368.00;132.07;;;;;;;;;;286479;34;904;-76
2023/01/16 00:41:42;;;;;;;359.11;127.26;;;;;;;5.72;100.00;99680.94;2499003;27;20507;-76
2023/01/16 00:41:52;;;;;;;374.77;129.63;;;;;;;5.75;100.00;99685.22;353111;28;957;-76
2023/01/16 00:42:03;;;;;;;368.47;126.70;;;;;;;5.77;100.00;99688.63;350132;28;1347;-76
2023/01/16 00:42:13;;;;;;;365.57;125.50;;;;;;;5.77;100.00;99678.25;350446;28;1048;-77
2023/01/16 00:42:24;;;;;;;364.63;129.15;;;;;;;5.78;100.00;99686.00;347434;28;1193;-77
2023/01/16 00:42:34;;;;;;;370.67;135.50;;;;;;;5.77;100.00;99686.91;348887;28;1424;-77
2023/01/16 00:42:44;;;;;;;370.77;137.68;;;;;;;5.77;100.00;99683.44;350381;28;1423;-77
2023/01/16 00:42:55;;;;;;;366.27;133.93;;;;;;;5.78;100.00;99679.97;347326;28;1290;-77
2023/01/16 00:43:06;;;;;;;362.95;129.60;;;;;;;5.78;100.00;99685.16;346902;28;901;-76
2023/01/16 00:43:16;;;;;;;364.98;128.38;;;;;;;5.78;100.00;99679.97;347951;28;955;-76
2023/01/16 00:43:26;;;;;;;366.73;130.17;;;;;;;5.77;100.00;99678.25;346156;28;1171;-76
2023/01/16 00:43:37;;;;;;;367.07;133.23;;;;;;;5.77;100.00;99680.84;349033;28;1081;-76
2023/01/16 00:43:47;;;;;;;365.00;131.90;;;;;;;5.78;100.00;99679.97;350573;28;919;-76
2023/01/16 00:43:58;;;;;;;366.53;132.67;;;;;;;5.78;100.00;99683.41;349019;28;824;-76
2023/01/16 00:44:09;;;;;;;369.38;134.35;;;;;;;5.77;100.00;99673.06;347630;28;931;-76
2023/01/16 00:44:19;;;;;;;371.57;135.37;;;;;;;5.78;100.00;99679.97;347735;28;963;-76
2023/01/16 00:44:30;;;;;;;371.52;134.60;;;;;;;5.79;100.00;99676.47;350126;28;1307;-76
2023/01/16 00:44:40;;;;;;;370.10;129.03;;;;;;;5.80;100.00;99685.97;350322;28;1302;-76
2023/01/16 00:44:50;;;;;;;367.27;129.65;;;;;;;5.79;100.00;99673.88;346229;28;1303;-77
2023/01/16 00:45:01;;;;;;;363.90;126.37;;;;;;;5.79;100.00;99677.34;346306;28;953;-77
2023/01/16 00:45:11;;;;;;;363.48;130.57;;;;;;;5.79;100.00;99676.47;347643;28;963;-77
2023/01/16 00:45:22;;;;;;;366.30;130.90;;;;;;;5.78;100.00;99677.38;350943;28;1349;-77
2023/01/16 00:45:32;;;;;;;365.50;130.57;;;;;;;5.76;100.00;99669.63;350167;28;1143;-77
2023/01/16 00:45:43;;;;;;;364.13;129.27;;;;;;;5.77;100.00;99683.44;348963;28;1611;-78
2023/01/16 00:45:56;;;;;;;361.80;127.07;;;;;;;5.77;100.00;99680.84;349009;28;1242;-77
2023/01/16 00:46:06;;;;;;;362.73;129.48;;;;;;;5.76;100.00;99676.53;348701;28;1318;-76
2023/01/16 00:46:17;;;;;;;362.93;130.07;;;;;;;5.74;100.00;99678.31;346473;28;1376;-75
2023/01/16 00:46:29;;;;;;;364.90;129.87;;;;;;;5.74;100.00;99678.31;344914;28;1357;-75
2023/01/16 00:46:39;;;;;;;367.85;128.35;;;;;;;5.73;100.00;99674.88;346154;28;1322;-76
2023/01/16 00:46:50;;;;;;;375.83;127.32;;;;;;;5.72;100.00;99678.34;343386;28;1319;-76
2023/01/16 00:47:00;;;;;;;376.17;127.27;;;;;;;5.72;100.00;99680.09;344677;28;1433;-76
2023/01/16 00:47:10;;;;;;;370.30;129.70;;;;;;;5.69;100.00;99671.47;347632;28;912;-75
2023/01/16 00:47:21;;;;;;;368.87;130.23;;;;;;;5.68;100.00;99674.97;347641;28;864;-75
2023/01/16 00:47:31;;;;;;;370.40;130.65;;;;;;;5.69;100.00;99686.19;343351;28;1178;-75
2023/01/16 00:47:42;;;;;;;369.37;128.77;;;;;;;5.67;100.00;99675.84;340858;28;1134;-75
2023/01/16 00:47:52;;;;;;;369.17;128.70;;;;;;;5.68;100.00;99680.16;343014;28;1033;-76
2023/01/16 00:48:03;;;;;;;367.65;131.07;;;;;;;5.69;100.00;99681.84;344402;28;1217;-76
2023/01/16 00:48:14;;;;;;;367.40;131.43;;;;;;;5.68;100.00;99680.16;339565;29;1395;-76
2023/01/16 00:48:24;;;;;;;365.98;127.57;;;;;;;5.68;100.00;99680.16;341518;28;1203;-76
2023/01/16 00:48:34;;;;;;;367.47;128.87;;;;;;;5.69;100.00;99681.84;338793;29;1113;-76
2023/01/16 00:48:45;;;;;;;367.80;128.45;;;;;;;5.68;100.00;99669.75;339610;29;874;-76
2023/01/16 00:48:56;;;;;;;369.00;135.77;;;;;;;5.69;100.00;99679.25;343642;28;933;-76
2023/01/16 00:49:06;;;;;;;367.27;133.75;;;;;;;5.68;100.00;99669.75;343726;28;963;-76
2023/01/16 00:49:16;;;;;;;367.80;132.57;;;;;;;5.69;100.00;99676.66;340267;29;1304;-76
2023/01/16 00:49:27;;;;;;;364.73;128.75;;;;;;;5.69;100.00;99674.06;339896;29;1081;-76
2023/01/16 00:49:37;;;;;;;363.98;127.47;;;;;;;5.68;100.00;99669.75;343761;28;1455;-76
2023/01/16 00:49:48;;;;;;;361.47;127.27;;;;;;;5.66;100.00;99671.53;340336;28;1858;-76
2023/01/16 00:49:58;;;;;;;361.20;127.40;;;;;;;5.67;100.00;99670.66;336790;29;1185;-76
2023/01/16 00:50:09;;;;;;;361.80;127.35;;;;;;;5.67;100.00;99677.59;338686;29;1297;-76
2023/01/16 00:50:19;;;;;;;365.90;127.70;;;;;;;5.68;100.00;99669.75;337162;28;1703;-76
2023/01/16 00:50:30;;;;;;;368.77;126.87;;;;;;;5.67;100.00;99668.06;336743;29;1204;-76
2023/01/16 00:50:40;;;;;;;365.85;125.93;;;;;;;5.69;100.00;99673.22;336793;29;1915;-76
2023/01/16 00:50:51;;;;;;;365.43;128.27;;;;;;;5.69;100.00;99666.28;338191;29;875;-77
2023/01/16 00:51:01;;;;;;;362.23;125.65;;;;;;;5.71;100.00;99673.19;336814;29;1156;-77
2023/01/16 00:51:11;;;;;;;366.53;124.40;;;;;;;5.69;100.00;99674.06;337420;29;877;-77
2023/01/16 00:51:22;;;;;;;368.13;123.63;;;;;;;5.71;100.00;99670.59;334043;29;1211;-76
2023/01/16 00:51:32;;;;;;;370.93;126.07;;;;;;;5.71;100.00;99675.78;336627;29;2014;-76
2023/01/16 00:51:43;;;;;;;368.27;128.63;;;;;;;5.69;100.00;99665.44;334788;29;1684;-76
2023/01/16 00:51:53;;;;;;;369.47;129.33;;;;;;;5.69;100.00;99661.09;331311;29;1753;-76
2023/01/16 00:52:04;;;;;;;366.52;127.50;;;;;;;5.71;100.00;99666.25;333743;29;1816;-76
2023/01/16 00:52:14;;;;;;;364.63;124.27;;;;;;;5.71;100.00;99671.44;336826;29;1203;-76
2023/01/16 00:52:25;;;;;;;360.75;122.60;;;;;;;5.72;100.00;99674.91;337631;29;2031;-76
2023/01/16 00:52:35;;;;;;;360.93;126.37;;;;;;;5.72;100.00;99669.69;334777;29;2149;-76
2023/01/16 00:52:45;;;;;;;362.63;128.25;;;;;;;5.72;100.00;99670.56;333025;29;1513;-76
2023/01/16 00:52:56;;;;;;;362.50;130.03;;;;;;;5.72;100.00;99667.09;334246;29;1546;-76
2023/01/16 00:53:06;;;;;;;362.55;128.48;;;;;;;5.72;100.00;99669.69;333031;29;1087;-76
2023/01/16 00:53:17;;;;;;;363.97;129.73;;;;;;;5.71;100.00;99668.00;331387;29;1150;-76
2023/01/16 00:53:27;;;;;;;366.55;128.93;;;;;;;5.70;100.00;99672.34;329624;29;1407;-76
2023/01/16 00:53:37;;;;;;;364.67;128.07;;;;;;;5.70;100.00;99661.94;333634;29;2013;-76
2023/01/16 00:53:48;;;;;;;361.02;125.35;;;;;;;5.71;100.00;99668.00;333342;29;2033;-76
2023/01/16 00:53:58;;;;;;;359.83;125.47;;;;;;;5.69;100.00;99663.69;327018;30;1499;-76
2023/01/16 00:54:08;;;;;;;362.93;127.00;;;;;;;5.71;100.00;99665.41;329442;29;2286;-76
2023/01/16 00:54:19;;;;;;;365.13;129.32;;;;;;;5.69;100.00;99671.47;330680;29;2478;-76
2023/01/16 00:54:29;;;;;;;366.77;129.73;;;;;;;5.68;100.00;99674.97;330574;29;800;-76
2023/01/16 00:54:40;;;;;;;365.48;127.85;;;;;;;5.67;100.00;99662.84;328781;30;2626;-76
2023/01/16 00:54:50;;;;;;;366.20;125.83;;;;;;;5.65;100.00;99663.78;327157;30;2891;-76
2023/01/16 00:55:01;;;;;;;365.10;124.93;;;;;;;5.65;100.00;99674.16;326783;30;1337;-76
2023/01/16 00:55:11;;;;;;;364.53;126.03;;;;;;;5.65;100.00;99672.41;324456;30;1182;-76
2023/01/16 00:55:21;;;;;;;365.60;128.27;;;;;;;5.63;100.00;99666.41;325379;30;1483;-76
2023/01/16 00:55:36;;;;;;;362.53;127.40;;;;;;;5.60;100.00;99666.50;324072;29;2080;-76
2023/01/16 00:55:46;;;;;;;362.48;127.10;;;;;;;5.60;100.00;99665.63;323863;30;2611;-76
2023/01/16 00:55:57;;;;;;;366.47;127.73;;;;;;;5.60;100.00;99671.69;320180;30;1258;-76